createdAt,value
2023-02-19T00:01:25.004Z,8.11
2023-02-19T00:03:53.709Z,8.11
2023-02-19T00:06:21.156Z,8.12
2023-02-19T00:08:47.830Z,8.13
2023-02-19T00:11:17.093Z,8.15
2023-02-19T00:13:46.097Z,8.18
2023-02-19T00:16:14.625Z,8.17
2023-02-19T00:18:41.977Z,8.19
2023-02-19T00:21:08.854Z,8.23
2023-02-19T00:23:36.001Z,8.25
2023-02-19T00:26:17.581Z,8.26
2023-02-19T00:28:44.819Z,8.26
2023-02-19T00:31:21.171Z,8.27
2023-02-19T00:33:48.765Z,8.28
2023-02-19T00:36:15.555Z,8.27
2023-02-19T00:38:42.892Z,8.29
2023-02-19T00:41:19.275Z,8.28
2023-02-19T00:43:55.677Z,8.30
2023-02-19T00:46:27.667Z,8.32
2023-02-19T00:48:54.766Z,8.33
2023-02-19T00:51:23.326Z,8.37
2023-02-19T00:53:50.086Z,8.41
2023-02-19T00:56:16.766Z,8.41
2023-02-19T00:58:43.269Z,8.43
2023-02-19T01:01:10.934Z,8.48
2023-02-19T01:03:38.622Z,8.50
2023-02-19T01:06:06.203Z,8.51
2023-02-19T01:08:33.746Z,8.54
2023-02-19T01:11:01.295Z,8.56
2023-02-19T01:13:28.512Z,8.57
2023-02-19T01:16:12.491Z,8.58
2023-02-19T01:18:39.757Z,8.61
2023-02-19T01:21:07.669Z,8.62
2023-02-19T01:23:34.952Z,8.60
2023-02-19T01:26:05.264Z,8.57
2023-02-19T01:28:31.770Z,8.56
2023-02-19T01:31:04.796Z,8.53
2023-02-19T01:33:31.850Z,8.52
2023-02-19T01:35:58.425Z,8.54
2023-02-19T01:38:25.122Z,8.53
2023-02-19T01:41:14.124Z,8.53
2023-02-19T01:43:55.731Z,8.56
2023-02-19T01:46:28.690Z,8.57
2023-02-19T01:48:57.722Z,8.58
2023-02-19T01:51:24.290Z,8.62
2023-02-19T01:53:55.136Z,8.64
2023-02-19T01:56:22.786Z,8.67
2023-02-19T01:58:49.362Z,8.68
2023-02-19T02:01:15.924Z,8.71
2023-02-19T02:03:45.596Z,8.67
2023-02-19T02:06:26.293Z,8.66
2023-02-19T02:09:14.358Z,8.64
2023-02-19T02:11:45.472Z,8.65
2023-02-19T02:14:12.337Z,8.65
2023-02-19T02:16:48.703Z,8.66
2023-02-19T02:19:34.017Z,8.65
2023-02-19T02:22:05.767Z,8.68
2023-02-19T02:24:41.112Z,8.65
2023-02-19T02:27:18.202Z,8.59
2023-02-19T02:30:01.796Z,8.61
2023-02-19T02:32:34.561Z,8.62
2023-02-19T02:35:08.681Z,8.64
2023-02-19T02:37:37.731Z,8.66
2023-02-19T02:40:05.117Z,8.66
2023-02-19T02:42:33.723Z,8.68
2023-02-19T02:45:36.584Z,8.72
2023-02-19T02:48:03.291Z,8.72
2023-02-19T02:50:34.641Z,8.73
2023-02-19T02:53:26.762Z,8.76
2023-02-19T02:55:54.158Z,8.80
2023-02-19T02:58:22.611Z,8.84
2023-02-19T03:01:11.677Z,8.85
2023-02-19T03:03:40.067Z,8.82
2023-02-19T03:06:07.724Z,8.83
2023-02-19T03:08:41.313Z,8.83
2023-02-19T03:11:28.714Z,8.82
2023-02-19T03:14:25.449Z,8.83
2023-02-19T03:17:14.668Z,8.84
2023-02-19T03:19:43.965Z,8.80
2023-02-19T03:22:34.387Z,8.78
2023-02-19T03:25:35.687Z,8.76
2023-02-19T03:28:04.589Z,8.71
2023-02-19T03:30:38.717Z,8.69
2023-02-19T03:33:09.974Z,8.67
2023-02-19T03:35:41.391Z,8.66
2023-02-19T03:38:25.553Z,8.68
2023-02-19T03:41:09.790Z,8.69
2023-02-19T03:43:48.572Z,8.71
2023-02-19T03:46:40.703Z,8.72
2023-02-19T03:49:33.114Z,8.72
2023-02-19T03:52:12.470Z,8.70
2023-02-19T03:54:47.434Z,8.73
2023-02-19T03:57:42.251Z,8.75
2023-02-19T04:00:28.018Z,8.77
2023-02-19T04:03:02.776Z,8.74
2023-02-19T04:05:35.996Z,8.72
2023-02-19T04:08:08.864Z,8.71
2023-02-19T04:10:35.919Z,8.66
2023-02-19T04:13:15.318Z,8.67
2023-02-19T04:15:43.134Z,8.66
2023-02-19T04:18:14.640Z,8.60
2023-02-19T04:20:44.807Z,8.63
2023-02-19T04:23:12.549Z,8.63
2023-02-19T04:25:40.616Z,8.62
2023-02-19T04:28:08.064Z,8.65
2023-02-19T04:30:34.669Z,8.65
2023-02-19T04:33:01.216Z,8.65
2023-02-19T04:35:27.696Z,8.68
2023-02-19T04:37:54.158Z,8.68
2023-02-19T04:40:20.635Z,8.71
2023-02-19T04:42:47.126Z,8.74
2023-02-19T04:45:13.747Z,8.78
2023-02-19T04:47:40.197Z,8.79
2023-02-19T04:50:06.800Z,8.83
2023-02-19T04:52:33.408Z,8.83
2023-02-19T04:54:59.851Z,8.85
2023-02-19T04:57:26.340Z,8.89
2023-02-19T04:59:53.036Z,8.91
2023-02-19T05:02:19.511Z,8.94
2023-02-19T05:04:45.943Z,8.90
2023-02-19T05:07:12.419Z,8.88
2023-02-19T05:09:39.128Z,8.82
2023-02-19T05:12:05.972Z,8.79
2023-02-19T05:14:32.438Z,8.76
2023-02-19T05:16:58.941Z,8.72
2023-02-19T05:19:25.391Z,8.70
2023-02-19T05:21:51.877Z,8.67
2023-02-19T05:24:19.295Z,8.65
2023-02-19T05:26:45.777Z,8.60
2023-02-19T05:29:12.212Z,8.54
2023-02-19T05:31:38.802Z,8.47
2023-02-19T05:34:05.284Z,8.42
2023-02-19T05:36:32.091Z,8.38
2023-02-19T05:38:58.921Z,8.37
2023-02-19T05:41:27.341Z,8.34
2023-02-19T05:43:54.724Z,8.23
2023-02-19T05:46:23.854Z,8.14
2023-02-19T05:48:51.517Z,8.05
2023-02-19T05:51:21.084Z,7.99
2023-02-19T05:53:48.327Z,7.93
2023-02-19T05:56:23.829Z,7.90
2023-02-19T05:58:50.700Z,7.88
2023-02-19T06:01:18.865Z,7.87
2023-02-19T06:03:45.700Z,7.84
2023-02-19T06:06:13.633Z,7.80
2023-02-19T06:08:40.148Z,7.77
2023-02-19T06:11:06.686Z,7.76
2023-02-19T06:13:33.173Z,7.74
2023-02-19T06:16:00.087Z,7.74
2023-02-19T06:18:26.612Z,7.73
2023-02-19T06:20:53.107Z,7.74
2023-02-19T06:23:19.602Z,7.75
2023-02-19T06:25:46.113Z,7.76
2023-02-19T06:28:12.587Z,7.75
2023-02-19T06:30:39.127Z,7.77
2023-02-19T06:33:05.675Z,7.80
2023-02-19T06:35:32.172Z,7.80
2023-02-19T06:37:58.711Z,7.82
2023-02-19T06:40:25.224Z,7.83
2023-02-19T06:42:51.731Z,7.84
2023-02-19T06:45:18.244Z,7.86
2023-02-19T06:47:44.743Z,7.87
2023-02-19T06:50:11.305Z,7.92
2023-02-19T06:52:37.816Z,7.97
2023-02-19T06:55:04.628Z,7.98
2023-02-19T06:57:31.158Z,7.98
2023-02-19T06:59:57.750Z,7.99
2023-02-19T07:02:24.280Z,8.01
2023-02-19T07:04:50.804Z,8.02
2023-02-19T07:07:17.332Z,8.05
2023-02-19T07:09:43.808Z,8.06
2023-02-19T07:12:10.756Z,8.06
2023-02-19T07:14:37.350Z,8.09
2023-02-19T07:17:03.854Z,8.10
2023-02-19T07:19:30.379Z,8.07
2023-02-19T07:21:56.892Z,8.08
2023-02-19T07:24:23.662Z,8.09
2023-02-19T07:26:50.322Z,8.10
2023-02-19T07:29:16.998Z,8.10
2023-02-19T07:31:43.526Z,8.15
2023-02-19T07:34:10.064Z,8.17
2023-02-19T07:36:36.794Z,8.21
2023-02-19T07:39:03.826Z,8.24
2023-02-19T07:41:30.398Z,8.26
2023-02-19T07:43:56.962Z,8.27
2023-02-19T07:46:23.713Z,8.28
2023-02-19T07:48:50.552Z,8.26
2023-02-19T07:51:19.655Z,8.22
2023-02-19T07:53:47.237Z,8.22
2023-02-19T07:56:13.987Z,8.22
2023-02-19T07:58:40.749Z,8.21
2023-02-19T08:01:08.568Z,8.19
2023-02-19T08:03:36.402Z,8.18
2023-02-19T08:06:03.162Z,8.18
2023-02-19T08:08:29.746Z,8.18
2023-02-19T08:11:18.901Z,8.17
2023-02-19T08:13:48.509Z,8.10
2023-02-19T08:16:26.699Z,8.13
2023-02-19T08:18:56.536Z,8.12
2023-02-19T08:21:23.234Z,8.18
2023-02-19T08:23:51.181Z,8.18
2023-02-19T08:26:18.177Z,8.22
2023-02-19T08:28:44.931Z,8.23
2023-02-19T08:31:12.318Z,8.25
2023-02-19T08:33:40.216Z,8.28
2023-02-19T08:36:08.678Z,8.30
2023-02-19T08:38:36.416Z,8.34
2023-02-19T08:41:07.392Z,8.35
2023-02-19T08:43:34.758Z,8.40
2023-02-19T08:46:01.551Z,8.41
2023-02-19T08:48:28.857Z,8.41
2023-02-19T08:50:56.891Z,8.45
2023-02-19T08:53:24.193Z,8.54
2023-02-19T08:55:51.791Z,8.67
2023-02-19T08:58:18.344Z,8.81
2023-02-19T09:00:45.194Z,8.85
2023-02-19T09:03:11.701Z,8.82
2023-02-19T09:05:38.814Z,8.86
2023-02-19T09:08:05.599Z,9.03
2023-02-19T09:10:32.166Z,9.48
2023-02-19T09:12:58.662Z,9.97
2023-02-19T09:15:25.325Z,10.20
2023-02-19T09:17:52.761Z,10.39
2023-02-19T09:20:19.509Z,10.30
2023-02-19T09:22:46.385Z,10.11
2023-02-19T09:25:12.947Z,9.83
2023-02-19T09:27:39.467Z,10.01
2023-02-19T09:30:06.455Z,10.09
2023-02-19T09:32:33.233Z,10.63
2023-02-19T09:34:59.884Z,11.14
2023-02-19T09:37:29.434Z,10.83
2023-02-19T09:39:56.046Z,10.60
2023-02-19T09:42:24.982Z,10.82
2023-02-19T09:44:55.122Z,10.60
2023-02-19T09:47:32.001Z,10.44
2023-02-19T09:50:07.224Z,9.97
2023-02-19T09:52:37.717Z,9.42
2023-02-19T09:55:14.597Z,9.37
2023-02-19T09:57:41.858Z,9.41
2023-02-19T10:00:11.717Z,9.74
2023-02-19T10:02:38.776Z,9.74
2023-02-19T10:05:15.960Z,9.73
2023-02-19T10:07:48.044Z,9.86
2023-02-19T10:10:14.527Z,9.89
2023-02-19T10:12:47.412Z,9.79
2023-02-19T10:15:28.856Z,9.73
2023-02-19T10:17:55.512Z,9.52
2023-02-19T10:20:24.716Z,9.34
2023-02-19T10:23:11.603Z,9.28
2023-02-19T10:25:42.695Z,9.05
2023-02-19T10:28:29.620Z,8.99
2023-02-19T10:30:59.207Z,8.94
2023-02-19T10:33:26.372Z,8.79
2023-02-19T10:35:57.039Z,8.65
2023-02-19T10:38:28.324Z,8.53
2023-02-19T10:41:01.782Z,8.45
2023-02-19T10:43:34.090Z,8.28
2023-02-19T10:46:14.584Z,8.18
2023-02-19T10:48:47.231Z,8.17
2023-02-19T10:51:20.913Z,8.21
2023-02-19T10:53:52.590Z,8.12
2023-02-19T10:56:27.561Z,8.06
2023-02-19T10:58:54.463Z,8.13
2023-02-19T11:01:23.519Z,8.16
2023-02-19T11:03:51.764Z,8.24
2023-02-19T11:06:20.795Z,8.21
2023-02-19T11:08:52.112Z,8.24
2023-02-19T11:11:38.474Z,8.20
2023-02-19T11:14:16.015Z,8.21
2023-02-19T11:16:44.953Z,8.26
2023-02-19T11:19:24.642Z,8.24
2023-02-19T11:21:51.502Z,8.33
2023-02-19T11:24:34.334Z,8.36
2023-02-19T11:27:04.258Z,8.46
2023-02-19T11:29:34.785Z,8.50
2023-02-19T11:32:26.284Z,8.60
2023-02-19T11:35:04.496Z,8.57
2023-02-19T11:37:31.035Z,8.67
2023-02-19T11:39:57.553Z,8.72
2023-02-19T11:42:29.589Z,8.78
2023-02-19T11:44:59.282Z,8.75
2023-02-19T11:47:37.954Z,8.83
2023-02-19T11:50:19.755Z,8.89
2023-02-19T11:52:52.263Z,9.00
2023-02-19T11:55:32.517Z,9.16
2023-02-19T11:58:09.681Z,9.04
2023-02-19T12:00:47.817Z,9.10
2023-02-19T12:03:20.778Z,9.03
2023-02-19T12:05:56.605Z,9.07
2023-02-19T12:08:47.226Z,9.12
2023-02-19T12:11:35.502Z,9.04
2023-02-19T12:14:17.501Z,8.92
2023-02-19T12:17:09.399Z,8.77
2023-02-19T12:19:45.069Z,8.66
2023-02-19T12:22:28.043Z,8.70
2023-02-19T12:25:00.783Z,8.66
2023-02-19T12:27:37.458Z,8.75
2023-02-19T12:30:19.232Z,8.89
2023-02-19T12:33:04.541Z,9.13
2023-02-19T12:35:59.058Z,9.03
2023-02-19T12:38:35.192Z,9.01
2023-02-19T12:41:43.180Z,8.88
2023-02-19T12:44:19.939Z,8.78
2023-02-19T12:46:53.432Z,8.85
2023-02-19T12:49:35.736Z,8.79
2023-02-19T12:52:08.158Z,8.81
2023-02-19T12:54:38.155Z,8.97
2023-02-19T12:57:17.503Z,8.67
2023-02-19T12:59:49.630Z,8.57
2023-02-19T13:02:24.555Z,8.53
2023-02-19T13:05:15.728Z,8.61
2023-02-19T13:07:54.472Z,8.69
2023-02-19T13:10:49.890Z,8.58
2023-02-19T13:13:23.912Z,8.35
2023-02-19T13:15:53.535Z,8.23
2023-02-19T13:18:24.679Z,8.21
2023-02-19T13:20:51.906Z,8.27
2023-02-19T13:23:59.742Z,8.43
2023-02-19T13:26:49.225Z,8.74
2023-02-19T13:29:25.541Z,9.16
2023-02-19T13:32:10.696Z,9.21
2023-02-19T13:34:56.191Z,8.91
2023-02-19T13:37:23.124Z,8.77
2023-02-19T13:39:51.664Z,8.66
2023-02-19T13:42:31.514Z,8.68
2023-02-19T13:44:58.894Z,8.44
2023-02-19T13:47:58.841Z,8.18
2023-02-19T13:50:30.242Z,8.49
2023-02-19T13:52:58.413Z,8.84
2023-02-19T13:55:51.650Z,8.94
2023-02-19T13:58:33.212Z,8.83
2023-02-19T14:01:01.655Z,8.72
2023-02-19T14:03:31.052Z,8.51
2023-02-19T14:06:04.394Z,8.47
2023-02-19T14:08:50.394Z,8.40
2023-02-19T14:11:17.976Z,8.28
2023-02-19T14:13:47.498Z,8.02
2023-02-19T14:16:51.016Z,7.80
2023-02-19T14:19:36.237Z,7.72
2023-02-19T14:22:04.824Z,7.74
2023-02-19T14:24:33.428Z,7.81
2023-02-19T14:27:00.400Z,7.81
2023-02-19T14:29:28.179Z,7.61
2023-02-19T14:31:55.225Z,7.67
2023-02-19T14:34:23.575Z,7.74
2023-02-19T14:36:53.954Z,7.69
2023-02-19T14:39:24.410Z,7.84
2023-02-19T14:42:07.502Z,7.90
2023-02-19T14:44:57.337Z,7.91
2023-02-19T14:47:26.030Z,8.06
2023-02-19T14:49:57.864Z,8.08
2023-02-19T14:52:28.383Z,7.99
2023-02-19T14:55:01.530Z,7.96
2023-02-19T14:57:34.348Z,7.98
2023-02-19T15:00:03.958Z,7.84
2023-02-19T15:02:32.281Z,7.87
2023-02-19T15:04:58.933Z,7.92
2023-02-19T15:07:30.390Z,7.82
2023-02-19T15:10:04.794Z,7.86
2023-02-19T15:12:46.350Z,7.85
2023-02-19T15:15:18.717Z,7.76
2023-02-19T15:17:45.333Z,7.71
2023-02-19T15:20:17.425Z,7.56
2023-02-19T15:22:44.027Z,7.51
2023-02-19T15:25:17.726Z,7.52
2023-02-19T15:27:44.553Z,7.55
2023-02-19T15:30:28.596Z,7.44
2023-02-19T15:32:59.753Z,7.37
2023-02-19T15:35:28.021Z,7.29
2023-02-19T15:37:57.971Z,7.24
2023-02-19T15:40:31.373Z,7.19
2023-02-19T15:42:59.216Z,7.08
2023-02-19T15:45:32.124Z,7.13
2023-02-19T15:48:18.549Z,7.13
2023-02-19T15:50:51.978Z,6.98
2023-02-19T15:53:24.786Z,6.78
2023-02-19T15:56:06.493Z,6.68
2023-02-19T15:58:43.686Z,6.62
2023-02-19T16:01:19.179Z,6.65
2023-02-19T16:03:45.880Z,6.60
2023-02-19T16:06:17.869Z,6.57
2023-02-19T16:09:02.178Z,6.60
2023-02-19T16:11:40.569Z,6.59
2023-02-19T16:14:24.232Z,6.60
2023-02-19T16:16:55.868Z,6.62
2023-02-19T16:19:30.565Z,6.62
2023-02-19T16:21:58.430Z,6.59
2023-02-19T16:24:41.181Z,6.59
2023-02-19T16:27:08.043Z,6.62
2023-02-19T16:29:34.898Z,6.56
2023-02-19T16:32:04.101Z,6.51
2023-02-19T16:34:50.789Z,6.53
2023-02-19T16:37:33.730Z,6.43
2023-02-19T16:40:09.291Z,6.39
2023-02-19T16:42:36.972Z,6.35
2023-02-19T16:45:03.944Z,6.28
2023-02-19T16:47:37.770Z,6.25
2023-02-19T16:50:11.582Z,6.24
2023-02-19T16:52:39.360Z,6.22
2023-02-19T16:55:13.035Z,6.21
2023-02-19T16:57:39.867Z,6.19
2023-02-19T17:00:06.673Z,6.11
2023-02-19T17:02:33.890Z,6.12
2023-02-19T17:05:00.671Z,6.13
2023-02-19T17:07:27.689Z,6.15
2023-02-19T17:09:54.179Z,6.18
2023-02-19T17:12:21.375Z,6.14
2023-02-19T17:14:47.924Z,6.11
2023-02-19T17:17:14.580Z,6.11
2023-02-19T17:19:41.223Z,6.03
2023-02-19T17:22:08.047Z,5.92
2023-02-19T17:24:34.713Z,5.86
2023-02-19T17:27:01.271Z,5.83
2023-02-19T17:29:28.610Z,5.76
2023-02-19T17:31:55.255Z,5.73
2023-02-19T17:34:21.763Z,5.66
2023-02-19T17:36:48.295Z,5.61
2023-02-19T17:39:15.445Z,5.53
2023-02-19T17:41:42.386Z,5.48
2023-02-19T17:44:09.390Z,5.45
2023-02-19T17:46:36.554Z,5.43
2023-02-19T17:49:03.225Z,5.41
2023-02-19T17:51:29.799Z,5.39
2023-02-19T17:53:56.305Z,5.37
2023-02-19T17:56:26.564Z,5.35
2023-02-19T17:58:54.346Z,5.33
2023-02-19T18:01:21.474Z,5.35
2023-02-19T18:03:48.459Z,5.37
2023-02-19T18:06:14.956Z,5.39
2023-02-19T18:08:48.185Z,5.42
2023-02-19T18:11:14.901Z,5.43
2023-02-19T18:13:41.476Z,5.44
2023-02-19T18:16:08.222Z,5.49
2023-02-19T18:18:34.725Z,5.52
2023-02-19T18:21:01.272Z,5.55
2023-02-19T18:23:27.786Z,5.50
2023-02-19T18:25:54.528Z,5.55
2023-02-19T18:28:21.071Z,5.55
2023-02-19T18:30:47.783Z,5.60
2023-02-19T18:33:14.446Z,5.59
2023-02-19T18:35:41.006Z,5.62
2023-02-19T18:38:07.704Z,5.58
2023-02-19T18:40:34.328Z,5.58
2023-02-19T18:43:00.863Z,5.56
2023-02-19T18:45:29.642Z,5.55
2023-02-19T18:47:56.236Z,5.53
2023-02-19T18:50:22.775Z,5.49
2023-02-19T18:52:49.707Z,5.49
2023-02-19T18:55:16.293Z,5.48
2023-02-19T18:57:42.881Z,5.46
2023-02-19T19:00:10.266Z,5.44
2023-02-19T19:02:48.865Z,5.42
2023-02-19T19:05:22.938Z,5.43
2023-02-19T19:07:51.229Z,5.44
2023-02-19T19:10:18.513Z,5.44
2023-02-19T19:12:45.119Z,5.41
2023-02-19T19:15:11.740Z,5.42
2023-02-19T19:17:39.174Z,5.40
2023-02-19T19:20:06.579Z,5.41
2023-02-19T19:22:33.235Z,5.39
2023-02-19T19:25:00.246Z,5.37
2023-02-19T19:27:26.847Z,5.35
2023-02-19T19:29:53.582Z,5.37
2023-02-19T19:32:20.121Z,5.39
2023-02-19T19:34:47.571Z,5.40
2023-02-19T19:37:14.162Z,5.40
2023-02-19T19:39:42.799Z,5.44
2023-02-19T19:42:09.868Z,5.48
2023-02-19T19:44:36.566Z,5.49
2023-02-19T19:47:03.114Z,5.53
2023-02-19T19:49:29.811Z,5.52
2023-02-19T19:52:00.934Z,5.52
2023-02-19T19:54:28.201Z,5.52
2023-02-19T19:56:54.767Z,5.51
2023-02-19T19:59:22.430Z,5.52
2023-02-19T20:01:54.696Z,5.52
2023-02-19T20:04:22.424Z,5.57
2023-02-19T20:06:49.140Z,5.56
2023-02-19T20:09:16.961Z,5.56
2023-02-19T20:11:47.915Z,5.55
2023-02-19T20:14:15.172Z,5.55
2023-02-19T20:16:44.554Z,5.58
2023-02-19T20:19:11.372Z,5.58
2023-02-19T20:21:37.911Z,5.57
2023-02-19T20:24:04.812Z,5.53
2023-02-19T20:26:32.213Z,5.55
2023-02-19T20:28:58.857Z,5.56
2023-02-19T20:31:25.947Z,5.56
2023-02-19T20:33:52.734Z,5.53
2023-02-19T20:36:20.219Z,5.53
2023-02-19T20:38:48.828Z,5.54
2023-02-19T20:41:15.369Z,5.53
2023-02-19T20:43:41.918Z,5.51
2023-02-19T20:46:08.465Z,5.53
2023-02-19T20:48:35.151Z,5.51
2023-02-19T20:51:01.982Z,5.51
2023-02-19T20:53:29.967Z,5.48
2023-02-19T20:55:56.657Z,5.52
2023-02-19T20:58:24.129Z,5.54
2023-02-19T21:00:53.479Z,5.55
2023-02-19T21:03:20.908Z,5.53
2023-02-19T21:05:47.523Z,5.55
2023-02-19T21:08:15.021Z,5.53
2023-02-19T21:10:41.577Z,5.59
2023-02-19T21:13:08.091Z,5.59
2023-02-19T21:15:34.658Z,5.56
2023-02-19T21:18:01.491Z,5.59
2023-02-19T21:20:28.030Z,5.56
2023-02-19T21:22:54.894Z,5.58
2023-02-19T21:25:21.532Z,5.59
2023-02-19T21:27:48.048Z,5.61
2023-02-19T21:30:14.827Z,5.60
2023-02-19T21:32:41.454Z,5.61
2023-02-19T21:35:08.130Z,5.63
2023-02-19T21:37:34.640Z,5.65
2023-02-19T21:40:01.429Z,5.69
2023-02-19T21:42:27.974Z,5.71
2023-02-19T21:44:54.510Z,5.76
2023-02-19T21:47:21.122Z,5.75
2023-02-19T21:49:47.635Z,5.79
2023-02-19T21:52:14.223Z,5.84
2023-02-19T21:54:40.884Z,5.85
2023-02-19T21:57:09.382Z,5.85
2023-02-19T21:59:36.245Z,5.89
2023-02-19T22:02:02.870Z,5.94
2023-02-19T22:04:29.402Z,5.99
2023-02-19T22:06:56.766Z,6.03
2023-02-19T22:09:23.406Z,6.10
2023-02-19T22:11:49.928Z,6.14
2023-02-19T22:14:16.641Z,6.15
2023-02-19T22:16:43.283Z,6.15
2023-02-19T22:19:10.005Z,6.19
2023-02-19T22:21:36.558Z,6.18
2023-02-19T22:24:03.294Z,6.20
2023-02-19T22:26:34.423Z,6.18
2023-02-19T22:29:05.943Z,6.14
2023-02-19T22:31:33.301Z,6.12
2023-02-19T22:34:00.044Z,6.08
2023-02-19T22:36:28.626Z,6.07
2023-02-19T22:38:55.194Z,6.02
2023-02-19T22:41:21.863Z,6.03
2023-02-19T22:43:49.033Z,6.00
2023-02-19T22:46:19.216Z,5.98
2023-02-19T22:48:46.417Z,5.96
2023-02-19T22:51:15.211Z,5.95
2023-02-19T22:53:45.548Z,5.94
2023-02-19T22:56:13.974Z,5.90
2023-02-19T22:58:41.229Z,5.87
2023-02-19T23:01:08.956Z,5.87
2023-02-19T23:03:42.623Z,5.84
2023-02-19T23:06:09.286Z,5.81
2023-02-19T23:08:35.826Z,5.77
2023-02-19T23:11:02.326Z,5.72
2023-02-19T23:13:28.923Z,5.73
2023-02-19T23:15:55.633Z,5.69
2023-02-19T23:18:22.097Z,5.66
2023-02-19T23:20:48.580Z,5.64
2023-02-19T23:23:15.068Z,5.62
2023-02-19T23:25:41.997Z,5.58
2023-02-19T23:28:08.668Z,5.56
2023-02-19T23:30:35.297Z,5.59
2023-02-19T23:33:02.151Z,5.56
2023-02-19T23:35:28.839Z,5.59
2023-02-19T23:37:55.831Z,5.57
2023-02-19T23:40:22.441Z,5.59
2023-02-19T23:42:48.989Z,5.58
2023-02-19T23:45:16.606Z,5.57
2023-02-19T23:47:43.148Z,5.55
2023-02-19T23:50:10.052Z,5.53
2023-02-19T23:52:36.588Z,5.53
2023-02-19T23:55:03.067Z,5.53
2023-02-19T23:57:29.582Z,5.53
2023-02-19T23:59:56.201Z,5.51
